Time;durP1;ratioP1;P1;durP2;ratioP2;P2;SDS_P1;SDS_P2;PMS_P1;PMS_P2;Temp;Humidity;BMP_temperature;BMP_pressure;BME280_temperature;BME280_humidity;BME280_pressure;Samples;Min_cycle;Max_cycle;Signal;HPM_P1;HPM_P2
2022/10/12 00:04:26;;;;;;;15.98;7.87;;;17.70;78.40;;;;;;10862229;32;20050;-72
2022/10/12 00:10:28;;;;;;;11.40;7.65;;;17.60;78.50;;;;;;10861167;32;20416;-72
2022/10/12 00:16:30;;;;;;;15.63;6.55;;;17.50;78.50;;;;;;10861829;32;20032;-72
2022/10/12 00:22:33;;;;;;;10.40;6.22;;;17.50;78.50;;;;;;10882767;27;20027;-72
2022/10/12 00:28:35;;;;;;;9.90;7.05;;;17.50;78.60;;;;;;10898713;32;20324;-72
2022/10/12 00:34:37;;;;;;;8.07;5.07;;;17.50;78.60;;;;;;10899876;32;20046;-72
2022/10/12 00:40:39;;;;;;;7.90;5.90;;;17.40;78.70;;;;;;10898371;32;20215;-72
2022/10/12 00:46:44;;;;;;;8.32;5.43;;;17.30;78.70;;;;;;10898246;32;20295;-72
2022/10/12 00:53:02;;;;;;;8.75;6.15;;;17.40;78.80;;;;;;10896757;32;20031;-72
2022/10/12 00:59:10;;;;;;;8.90;5.70;;;17.40;78.90;;;;;;10893828;32;20043;-72
2022/10/12 01:05:13;;;;;;;19.12;5.78;;;17.40;78.80;;;;;;10900653;32;20046;-72
2022/10/12 01:11:16;;;;;;;9.02;5.90;;;17.30;78.90;;;;;;10902578;32;20159;-72
2022/10/12 01:17:39;;;;;;;10.88;5.78;;;17.30;79.10;;;;;;10904124;32;20050;-72
2022/10/12 01:24:12;;;;;;;9.32;6.57;;;17.40;79.00;;;;;;10903802;32;20016;-72
2022/10/12 01:30:24;;;;;;;9.40;7.03;;;17.30;78.90;;;;;;10899667;32;20050;-72
2022/10/12 01:36:34;;;;;;;7.65;5.68;;;17.20;79.10;;;;;;10903539;32;20023;-72
2022/10/12 01:42:39;;;;;;;7.28;5.80;;;17.20;79.30;;;;;;10890184;32;20023;-72
2022/10/12 01:48:44;;;;;;;8.55;5.60;;;17.10;79.20;;;;;;10903345;32;20421;-73
2022/10/12 01:55:00;;;;;;;10.25;6.55;;;17.10;79.30;;;;;;10902977;32;20062;-73
2022/10/12 02:01:20;;;;;;;8.35;6.45;;;17.10;79.40;;;;;;10902885;32;20023;-72
2022/10/12 02:07:40;;;;;;;7.78;5.62;;;17.00;79.40;;;;;;10902747;32;20042;-72
2022/10/12 02:14:04;;;;;;;10.55;6.22;;;17.00;79.40;;;;;;10884707;32;20019;-72
2022/10/12 02:20:12;;;;;;;9.27;6.22;;;17.00;79.40;;;;;;10885199;32;20073;-73
2022/10/12 02:26:15;;;;;;;8.70;5.73;;;16.90;79.50;;;;;;10897854;32;20023;-72
2022/10/12 02:32:38;;;;;;;8.00;5.28;;;16.90;79.50;;;;;;10901921;32;20046;-72
2022/10/12 02:38:47;;;;;;;8.82;5.75;;;16.80;79.60;;;;;;10901790;32;20019;-72
2022/10/12 02:44:52;;;;;;;6.25;4.32;;;16.90;79.70;;;;;;10897468;32;20465;-72
2022/10/12 02:50:56;;;;;;;9.73;5.93;;;16.90;79.60;;;;;;10901599;32;20065;-72
2022/10/12 02:56:58;;;;;;;8.43;4.70;;;16.90;79.60;;;;;;10901430;32;20049;-72
2022/10/12 03:03:00;;;;;;;11.98;6.18;;;16.90;79.70;;;;;;10901159;32;20109;-72
2022/10/12 03:09:04;;;;;;;11.70;6.07;;;16.80;79.80;;;;;;10900918;32;20016;-72
2022/10/12 03:15:06;;;;;;;8.70;4.57;;;16.80;79.90;;;;;;10900762;32;20050;-78
2022/10/12 03:21:09;;;;;;;8.00;5.30;;;16.80;79.90;;;;;;10900423;32;20023;-78
2022/10/12 03:27:11;;;;;;;12.15;5.05;;;16.70;80.00;;;;;;10899704;32;20026;-78
2022/10/12 03:33:13;;;;;;;7.60;5.03;;;16.80;80.10;;;;;;10887104;32;20024;-78
2022/10/12 03:39:15;;;;;;;13.57;5.40;;;16.80;80.00;;;;;;10900029;32;20054;-78
2022/10/12 03:45:17;;;;;;;9.15;5.97;;;16.70;80.20;;;;;;10886492;32;20035;-78
2022/10/12 03:51:19;;;;;;;7.72;3.92;;;16.70;80.20;;;;;;10899721;32;20023;-78
2022/10/12 03:57:21;;;;;;;5.55;3.85;;;16.70;80.20;;;;;;10899606;32;20046;-78
2022/10/12 04:03:23;;;;;;;9.85;5.50;;;16.70;80.30;;;;;;10899247;32;20319;-79
2022/10/12 04:09:25;;;;;;;7.50;5.53;;;16.70;80.40;;;;;;10899280;32;20027;-79
2022/10/12 04:15:27;;;;;;;9.15;5.78;;;16.70;80.40;;;;;;10899158;32;20057;-79
2022/10/12 04:21:30;;;;;;;8.25;5.05;;;16.70;80.70;;;;;;10898876;32;20027;-79
2022/10/12 04:27:32;;;;;;;7.28;4.55;;;16.60;80.70;;;;;;10899074;32;20046;-79
2022/10/12 04:33:35;;;;;;;7.65;5.95;;;16.70;80.80;;;;;;10894640;32;20031;-79
2022/10/12 04:39:38;;;;;;;6.80;5.05;;;16.60;81.00;;;;;;10888751;32;20046;-79
2022/10/12 04:45:40;;;;;;;9.50;5.93;;;16.60;81.00;;;;;;10905100;32;20051;-79
2022/10/12 04:51:42;;;;;;;8.55;5.15;;;16.60;81.00;;;;;;10905102;32;20032;-79
2022/10/12 04:57:44;;;;;;;7.50;6.05;;;16.50;81.30;;;;;;10904731;32;20360;-79
2022/10/12 05:04:08;;;;;;;7.90;5.07;;;16.50;81.30;;;;;;10904474;32;20027;-79
2022/10/12 05:10:23;;;;;;;8.10;5.80;;;16.50;81.60;;;;;;10900311;32;20039;-79
2022/10/12 05:16:25;;;;;;;8.00;5.40;;;16.40;81.50;;;;;;10904493;32;20031;-79
2022/10/12 05:22:27;;;;;;;8.68;6.12;;;16.30;81.50;;;;;;10891056;32;20027;-79
2022/10/12 05:28:29;;;;;;;8.38;6.15;;;16.40;81.40;;;;;;10904126;32;20308;-79
2022/10/12 05:34:31;;;;;;;6.62;5.05;;;16.40;81.40;;;;;;10903544;32;20061;-79
2022/10/12 05:40:34;;;;;;;7.82;5.55;;;16.40;81.30;;;;;;10903360;32;20024;-79
2022/10/12 05:46:36;;;;;;;12.15;5.75;;;16.30;81.20;;;;;;10890073;32;20045;-79
2022/10/12 05:52:37;;;;;;;9.05;6.18;;;16.40;81.20;;;;;;10898467;32;20019;-79
2022/10/12 05:58:41;;;;;;;6.53;4.80;;;16.30;81.20;;;;;;10889468;32;20083;-79
2022/10/12 06:04:43;;;;;;;8.38;6.15;;;16.40;81.30;;;;;;10885334;32;20065;-79
2022/10/12 06:10:48;;;;;;;7.37;5.60;;;16.40;81.70;;;;;;10889203;32;20019;-79
2022/10/12 06:16:50;;;;;;;6.40;4.40;;;16.40;81.70;;;;;;10899566;32;20108;-79
2022/10/12 06:22:52;;;;;;;8.77;4.93;;;16.40;81.80;;;;;;10897859;32;20023;-79
2022/10/12 06:29:13;;;;;;;8.38;5.22;;;16.50;81.70;;;;;;10902933;32;20023;-80
2022/10/12 06:35:23;;;;;;;7.57;4.90;;;16.50;81.70;;;;;;10901887;32;20289;-79
2022/10/12 06:41:25;;;;;;;6.35;4.05;;;16.50;81.60;;;;;;10901859;32;20027;-79
2022/10/12 06:47:27;;;;;;;13.93;6.03;;;16.60;81.60;;;;;;10901564;32;20058;-79
2022/10/12 06:53:31;;;;;;;10.52;5.43;;;16.60;81.70;;;;;;10901976;32;20057;-79
2022/10/12 06:59:33;;;;;;;6.57;4.75;;;16.70;81.70;;;;;;10886833;32;20031;-79
2022/10/12 07:05:36;;;;;;;7.43;5.37;;;16.70;81.80;;;;;;10886824;32;20050;-80
2022/10/12 07:11:38;;;;;;;13.23;7.40;;;16.80;81.70;;;;;;10900994;32;20053;-79
2022/10/12 07:17:40;;;;;;;7.65;5.85;;;16.80;81.70;;;;;;10900768;32;20059;-79
2022/10/12 07:23:43;;;;;;;7.07;5.12;;;16.90;81.50;;;;;;10900358;32;20035;-79
2022/10/12 07:29:45;;;;;;;9.23;5.43;;;17.00;81.30;;;;;;10900320;32;20046;-81
2022/10/12 07:35:54;;;;;;;7.85;4.70;;;17.10;81.40;;;;;;10900261;32;20437;-79
2022/10/12 07:41:56;;;;;;;;;;;17.20;81.50;;;;;;10895993;32;20323;-80
2022/10/12 07:47:58;;;;;;;8.50;6.00;;;17.20;81.40;;;;;;10886938;32;19934;-80
2022/10/12 07:54:01;;;;;;;9.55;5.50;;;17.30;81.80;;;;;;10899611;32;20063;-79
2022/10/12 08:00:04;;;;;;;13.05;6.00;;;17.30;81.50;;;;;;10899303;32;20027;-73
2022/10/12 08:06:18;;;;;;;8.45;5.05;;;17.50;81.40;;;;;;10896794;32;20035;-73
2022/10/12 08:12:20;;;;;;;10.85;3.65;;;17.60;81.40;;;;;;10873087;32;20074;-73
2022/10/12 08:18:22;;;;;;;6.82;4.70;;;17.70;81.20;;;;;;10899014;32;20065;-73
2022/10/12 08:24:25;;;;;;;10.02;4.40;;;17.80;81.20;;;;;;10432400;27;12382014;-73
2022/10/12 08:30:27;;;;;;;16.15;6.82;;;17.90;81.10;;;;;;10780639;33;20048;-73
2022/10/12 08:36:29;;;;;;;11.73;5.62;;;18.00;81.00;;;;;;10770330;33;20041;-72
2022/10/12 08:42:34;;;;;;;8.50;4.78;;;18.10;80.70;;;;;;10780995;33;20040;-72
2022/10/12 08:49:04;;;;;;;13.48;8.35;;;18.30;80.30;;;;;;10768906;33;20336;-72
2022/10/12 08:55:20;;;;;;;13.10;5.60;;;18.40;80.70;;;;;;10815674;32;20027;-73
2022/10/12 09:01:52;;;;;;;8.73;5.45;;;18.40;80.10;;;;;;10860770;32;20023;-72
2022/10/12 09:08:01;;;;;;;11.12;5.87;;;18.60;79.40;;;;;;10859554;32;20032;-72
2022/10/12 09:14:12;;;;;;;8.35;4.53;;;18.70;78.90;;;;;;10860358;32;20023;-72
2022/10/12 09:20:30;;;;;;;9.27;5.43;;;18.80;78.30;;;;;;10856349;32;20031;-73
2022/10/12 09:26:38;;;;;;;7.62;4.72;;;18.90;78.00;;;;;;10862858;32;20040;-73
2022/10/12 09:32:46;;;;;;;8.27;5.18;;;19.00;77.60;;;;;;10866375;32;20059;-72
2022/10/12 09:38:49;;;;;;;10.97;5.33;;;19.10;77.20;;;;;;10862659;32;20032;-73
2022/10/12 09:45:25;;;;;;;6.70;4.65;;;19.20;77.20;;;;;;10861922;32;20066;-73
2022/10/12 09:51:29;;;;;;;7.37;4.70;;;19.30;76.50;;;;;;10715582;33;20115;-73
2022/10/12 09:57:40;;;;;;;16.73;3.62;;;19.40;75.90;;;;;;10703407;33;20451;-73
2022/10/12 10:03:42;;;;;;;9.98;4.25;;;19.50;75.50;;;;;;10715017;33;20063;-73
2022/10/12 10:09:47;;;;;;;6.28;4.30;;;19.60;75.10;;;;;;10712385;33;20033;-73
2022/10/12 10:16:00;;;;;;;5.97;3.87;;;19.70;74.90;;;;;;10714454;33;20021;-73
2022/10/12 10:22:06;;;;;;;13.90;4.47;;;19.80;74.30;;;;;;10711926;32;20037;-73
2022/10/12 10:28:23;;;;;;;9.15;3.58;;;20.00;73.30;;;;;;10822366;33;20426;-73
2022/10/12 10:34:26;;;;;;;6.97;3.37;;;20.10;72.90;;;;;;10810202;33;20360;-73
2022/10/12 10:40:30;;;;;;;5.90;2.60;;;20.30;72.30;;;;;;10823218;33;20067;-73
2022/10/12 10:46:35;;;;;;;9.73;3.65;;;20.50;71.60;;;;;;10822948;33;20070;-73
2022/10/12 10:52:37;;;;;;;11.10;4.62;;;20.80;70.90;;;;;;10828486;32;20028;-73
2022/10/12 10:59:03;;;;;;;6.20;4.03;;;20.90;69.50;;;;;;10822525;32;20442;-73
2022/10/12 11:05:28;;;;;;;6.75;3.17;;;21.10;69.20;;;;;;10824859;33;20031;-73
2022/10/12 11:11:45;;;;;;;6.45;4.12;;;21.40;68.20;;;;;;10822605;32;20063;-73
2022/10/12 11:17:53;;;;;;;5.78;3.75;;;21.70;67.70;;;;;;10821993;33;20032;-74
2022/10/12 11:24:19;;;;;;;3.90;3.05;;;21.80;67.60;;;;;;10822406;32;20301;-73
2022/10/12 11:30:23;;;;;;;8.52;5.43;;;21.80;66.90;;;;;;10823124;33;20055;-73
2022/10/12 11:36:27;;;;;;;5.75;2.58;;;21.90;66.60;;;;;;10823089;33;20028;-73
2022/10/12 11:42:38;;;;;;;6.43;3.83;;;21.90;66.10;;;;;;10824573;33;20039;-73
2022/10/12 11:49:00;;;;;;;8.48;4.82;;;21.90;65.80;;;;;;10820818;32;20050;-73
2022/10/12 11:55:24;;;;;;;6.65;4.03;;;22.10;65.20;;;;;;10825053;33;20042;-73
2022/10/12 12:01:35;;;;;;;8.48;3.28;;;22.00;64.70;;;;;;10821168;33;20320;-72
2022/10/12 12:07:46;;;;;;;6.40;2.50;;;22.00;64.40;;;;;;10821494;33;20054;-73
2022/10/12 12:14:43;;;;;;;10.57;3.47;;;21.90;64.60;;;;;;10824911;33;20054;-73
2022/10/12 12:21:01;;;;;;;6.20;2.97;;;22.00;64.20;;;;;;10823178;32;20019;-72
2022/10/12 12:27:03;;;;;;;5.87;3.37;;;22.00;63.60;;;;;;10825187;33;20331;-73
2022/10/12 12:33:16;;;;;;;4.68;3.33;;;21.90;64.00;;;;;;10808952;33;20050;-73
2022/10/12 12:39:24;;;;;;;4.80;3.12;;;21.90;63.80;;;;;;10824449;33;20400;-72
2022/10/12 12:45:32;;;;;;;8.98;3.03;;;21.90;63.40;;;;;;10825461;32;20062;-72
2022/10/12 12:51:37;;;;;;;9.77;3.35;;;21.90;63.00;;;;;;10821707;33;20054;-72
2022/10/12 12:57:57;;;;;;;6.53;3.45;;;22.00;63.40;;;;;;10808084;32;20435;-73
2022/10/12 13:04:46;;;;;;;4.70;2.85;;;21.80;63.70;;;;;;10813024;32;20032;-72
2022/10/12 13:11:14;;;;;;;5.17;3.23;;;21.90;64.00;;;;;;10826127;33;20023;-72
2022/10/12 13:18:08;;;;;;;7.37;3.40;;;21.90;64.30;;;;;;10814401;33;20016;-72
2022/10/12 13:24:18;;;;;;;9.05;4.18;;;21.90;63.60;;;;;;10814170;33;20058;-72
2022/10/12 13:30:49;;;;;;;6.60;3.12;;;21.90;63.90;;;;;;10834081;32;20059;-73
2022/10/12 13:37:13;;;;;;;8.45;3.03;;;21.90;64.30;;;;;;10786062;33;20086;-73
2022/10/12 13:43:19;;;;;;;7.10;2.80;;;21.90;64.00;;;;;;10783121;32;20064;-72
2022/10/12 13:49:26;;;;;;;7.70;2.60;;;22.00;63.90;;;;;;10783036;33;20035;-73
2022/10/12 13:55:30;;;;;;;6.18;3.62;;;21.90;64.00;;;;;;10783682;33;20025;-73
2022/10/12 14:01:34;;;;;;;4.75;3.50;;;21.90;64.00;;;;;;10783188;32;20091;-73
2022/10/12 14:07:41;;;;;;;5.87;4.15;;;21.90;63.60;;;;;;10783352;33;20051;-73
2022/10/12 14:13:44;;;;;;;4.50;2.40;;;21.90;63.50;;;;;;10818489;32;20285;-73
2022/10/12 14:19:48;;;;;;;5.85;3.10;;;21.90;64.00;;;;;;10825732;32;20028;-72
2022/10/12 14:25:53;;;;;;;11.55;3.30;;;22.00;63.80;;;;;;10857739;32;20050;-73
2022/10/12 14:31:57;;;;;;;7.32;3.28;;;22.00;63.40;;;;;;10862152;32;20042;-73
2022/10/12 14:38:39;;;;;;;3.95;2.90;;;22.00;63.40;;;;;;10859225;32;20046;-78
2022/10/12 14:44:52;;;;;;;4.50;2.45;;;22.20;62.90;;;;;;10860955;32;20411;-77
2022/10/12 14:51:03;;;;;;;5.10;3.03;;;22.20;62.90;;;;;;10863638;32;20384;-78
2022/10/12 14:57:15;;;;;;;9.43;3.33;;;22.20;62.60;;;;;;10851905;32;20012;-78
2022/10/12 15:03:19;;;;;;;4.15;2.87;;;22.10;62.20;;;;;;10846157;32;20023;-79
2022/10/12 15:09:21;;;;;;;7.75;4.40;;;22.10;62.20;;;;;;10863260;32;20063;-77
2022/10/12 15:16:03;;;;;;;6.70;3.25;;;22.00;62.10;;;;;;10863460;32;20046;-78
2022/10/12 15:22:07;;;;;;;7.35;3.22;;;22.00;62.20;;;;;;10913902;32;20050;-78
2022/10/12 15:28:09;;;;;;;6.78;3.90;;;22.00;62.50;;;;;;10914392;32;20015;-77
2022/10/12 15:34:14;;;;;;;7.00;3.05;;;22.10;62.30;;;;;;10861510;32;20059;-77
2022/10/12 15:40:18;;;;;;;12.60;2.97;;;22.20;62.50;;;;;;10859878;32;20335;-78
2022/10/12 15:46:20;;;;;;;4.20;2.80;;;21.90;63.10;;;;;;10862558;32;20054;-78
2022/10/12 15:52:22;;;;;;;6.40;2.90;;;21.70;63.40;;;;;;10862471;32;20016;-78
2022/10/12 15:58:24;;;;;;;7.62;2.70;;;21.50;63.90;;;;;;10861156;32;20043;-78
2022/10/12 16:04:26;;;;;;;6.70;2.22;;;21.30;64.20;;;;;;10862016;32;20414;-78
2022/10/12 16:10:31;;;;;;;7.40;2.78;;;21.20;64.40;;;;;;10861927;32;20046;-78
2022/10/12 16:16:33;;;;;;;11.45;3.72;;;21.00;64.70;;;;;;10861917;32;20015;-78
2022/10/12 16:22:36;;;;;;;3.47;2.53;;;20.90;65.10;;;;;;10864124;27;20054;-78
2022/10/12 16:28:38;;;;;;;5.62;3.90;;;20.80;65.50;;;;;;10845239;32;20430;-78
2022/10/12 16:34:40;;;;;;;9.48;3.87;;;20.60;65.80;;;;;;10847766;32;20046;-78
2022/10/12 16:40:43;;;;;;;5.10;3.28;;;20.40;66.20;;;;;;10840443;32;20603;-78
2022/10/12 16:46:45;;;;;;;4.30;3.28;;;20.30;66.40;;;;;;10831164;32;20407;-78
2022/10/12 16:52:48;;;;;;;7.18;3.40;;;20.20;67.20;;;;;;10847593;32;20332;-79
2022/10/12 16:58:51;;;;;;;6.25;2.50;;;20.00;67.80;;;;;;10838654;32;20054;-79
2022/10/12 17:04:53;;;;;;;7.82;3.35;;;20.00;67.90;;;;;;10820240;33;20073;-79
2022/10/12 17:10:56;;;;;;;4.25;2.80;;;19.90;68.00;;;;;;10810482;33;20031;-79
2022/10/12 17:16:58;;;;;;;7.57;3.75;;;19.90;68.20;;;;;;10834876;32;20032;-79
2022/10/12 17:23:01;;;;;;;10.00;4.03;;;19.80;68.40;;;;;;10836526;32;20027;-79
2022/10/12 17:29:08;;;;;;;6.57;2.62;;;19.80;68.90;;;;;;10823545;32;20059;-79
2022/10/12 17:35:10;;;;;;;6.70;4.18;;;19.70;69.40;;;;;;10820207;33;20020;-79
2022/10/12 17:41:13;;;;;;;6.55;3.55;;;19.60;69.80;;;;;;10821779;33;20023;-79
2022/10/12 17:47:16;;;;;;;4.87;2.90;;;19.60;69.90;;;;;;10821350;32;20039;-79
2022/10/12 17:53:19;;;;;;;8.77;3.42;;;19.50;70.50;;;;;;10814077;33;20027;-79
2022/10/12 17:59:21;;;;;;;8.05;3.80;;;19.40;70.90;;;;;;10814832;33;20032;-79
2022/10/12 18:05:24;;;;;;;6.62;3.53;;;19.30;71.20;;;;;;10811712;33;20036;-79
2022/10/12 18:11:26;;;;;;;7.35;4.55;;;19.30;71.20;;;;;;10815154;33;20020;-79
2022/10/12 18:17:28;;;;;;;11.25;5.47;;;19.30;71.30;;;;;;10859928;32;20066;-79
2022/10/12 18:23:30;;;;;;;7.20;4.55;;;19.20;71.80;;;;;;10864724;32;20308;-79
2022/10/12 18:29:33;;;;;;;10.25;4.85;;;19.10;72.30;;;;;;10862190;32;20024;-79
2022/10/12 18:35:35;;;;;;;14.32;5.72;;;19.10;72.60;;;;;;10861111;32;20036;-79
2022/10/12 18:41:37;;;;;;;7.78;5.43;;;19.00;72.60;;;;;;10864180;32;20050;-79
2022/10/12 18:47:39;;;;;;;14.87;5.70;;;19.00;72.80;;;;;;10863993;32;20368;-79
2022/10/12 18:53:41;;;;;;;8.55;6.62;;;19.00;73.40;;;;;;10864023;32;20024;-79
2022/10/12 18:59:44;;;;;;;11.35;5.70;;;18.90;74.00;;;;;;10863866;32;20447;-79
2022/10/12 19:05:45;;;;;;;8.90;5.78;;;18.80;74.30;;;;;;10860763;32;20031;-79
2022/10/12 19:11:47;;;;;;;10.02;6.57;;;18.80;74.40;;;;;;10850316;32;20043;-79
2022/10/12 19:17:49;;;;;;;9.38;5.53;;;18.70;74.40;;;;;;10863397;32;20352;-79
2022/10/12 19:23:51;;;;;;;10.68;6.78;;;18.70;74.40;;;;;;10863172;32;20031;-79
2022/10/12 19:30:08;;;;;;;9.35;6.28;;;18.60;74.60;;;;;;10862933;32;20042;-79
2022/10/12 19:36:11;;;;;;;8.63;6.57;;;18.50;74.60;;;;;;10858868;32;20046;-79
2022/10/12 19:42:13;;;;;;;7.47;5.53;;;18.50;74.80;;;;;;10862562;32;20021;-79
2022/10/12 19:48:16;;;;;;;9.77;6.87;;;18.50;74.90;;;;;;10858018;32;20058;-79
2022/10/12 19:54:18;;;;;;;11.25;8.10;;;18.30;75.00;;;;;;10862466;32;20028;-79
2022/10/12 20:00:21;;;;;;;12.25;7.18;;;18.30;75.10;;;;;;10859726;32;20020;-79
2022/10/12 20:06:26;;;;;;;7.93;5.93;;;18.30;75.10;;;;;;10863035;32;20032;-73
2022/10/12 20:12:29;;;;;;;9.20;6.95;;;18.30;75.40;;;;;;10861553;32;20020;-73
2022/10/12 20:18:31;;;;;;;9.27;7.15;;;18.20;75.50;;;;;;10861875;32;20103;-72
2022/10/12 20:24:33;;;;;;;9.18;6.45;;;18.20;75.60;;;;;;10860671;32;20050;-72
2022/10/12 20:30:35;;;;;;;10.50;5.93;;;18.20;75.70;;;;;;10861691;32;20028;-73
2022/10/12 20:36:38;;;;;;;9.40;7.35;;;18.10;75.80;;;;;;10861422;32;20028;-72
2022/10/12 20:42:40;;;;;;;12.68;7.10;;;18.10;75.90;;;;;;10861277;32;20375;-72
2022/10/12 20:48:43;;;;;;;9.57;7.25;;;18.00;75.90;;;;;;10861266;32;20059;-72
2022/10/12 20:54:45;;;;;;;11.73;8.00;;;18.10;76.20;;;;;;10858871;32;20023;-72
2022/10/12 21:00:47;;;;;;;10.25;7.43;;;18.10;76.30;;;;;;10860972;32;20388;-71
2022/10/12 21:06:50;;;;;;;11.98;6.87;;;18.10;76.40;;;;;;10860749;32;20024;-73
2022/10/12 21:12:52;;;;;;;12.40;7.15;;;18.00;76.80;;;;;;10843297;32;20024;-73
2022/10/12 21:18:55;;;;;;;13.50;7.22;;;18.00;76.80;;;;;;10856379;32;20028;-73
2022/10/12 21:24:57;;;;;;;14.07;7.43;;;18.00;76.80;;;;;;10852829;32;20050;-73
2022/10/12 21:30:59;;;;;;;8.95;7.15;;;17.90;76.90;;;;;;10862629;32;20031;-73
2022/10/12 21:37:01;;;;;;;10.32;6.68;;;17.80;77.00;;;;;;10862523;32;20421;-73
2022/10/12 21:43:03;;;;;;;12.13;7.75;;;17.80;77.10;;;;;;10866246;32;20439;-73
2022/10/12 21:49:08;;;;;;;10.18;7.10;;;17.80;77.30;;;;;;10866177;32;20335;-73
2022/10/12 21:55:11;;;;;;;12.18;8.05;;;17.80;77.30;;;;;;10862519;32;20047;-73
2022/10/12 22:01:16;;;;;;;15.18;7.68;;;17.80;77.50;;;;;;10865816;32;20364;-73
2022/10/12 22:07:18;;;;;;;12.15;6.75;;;17.70;77.70;;;;;;10865639;32;20032;-73
2022/10/12 22:13:21;;;;;;;15.98;8.00;;;17.70;77.70;;;;;;10865317;32;20032;-73
2022/10/12 22:19:23;;;;;;;9.70;6.93;;;17.70;77.80;;;;;;10865336;32;20023;-73
2022/10/12 22:25:25;;;;;;;9.32;6.35;;;17.60;77.80;;;;;;10860971;32;20316;-73
2022/10/12 22:31:30;;;;;;;10.20;6.80;;;17.50;78.00;;;;;;10851381;32;20051;-72
2022/10/12 22:37:32;;;;;;;9.32;7.65;;;17.50;78.40;;;;;;10851460;32;20063;-73
2022/10/12 22:43:34;;;;;;;15.70;7.50;;;17.50;78.60;;;;;;10864481;32;20338;-73
2022/10/12 22:49:36;;;;;;;12.13;7.15;;;17.40;78.80;;;;;;10864445;32;20016;-73
2022/10/12 22:55:38;;;;;;;15.32;8.02;;;17.30;79.00;;;;;;10846914;32;20046;-73
2022/10/12 23:01:40;;;;;;;9.95;6.65;;;17.40;79.00;;;;;;10861386;32;20384;-73
2022/10/12 23:07:43;;;;;;;8.00;6.57;;;17.30;78.90;;;;;;10863830;32;20071;-73
2022/10/12 23:13:46;;;;;;;10.73;7.53;;;17.20;79.00;;;;;;10846345;32;20050;-73
2022/10/12 23:19:50;;;;;;;8.90;6.60;;;17.20;79.10;;;;;;10850210;32;20023;-73
2022/10/12 23:26:01;;;;;;;9.15;6.78;;;17.10;79.00;;;;;;10863280;32;20389;-73
2022/10/12 23:32:04;;;;;;;9.30;7.20;;;17.00;78.90;;;;;;10863324;32;20023;-73
2022/10/12 23:38:06;;;;;;;9.75;8.20;;;17.00;79.00;;;;;;10858997;32;20050;-73
2022/10/12 23:44:08;;;;;;;10.75;7.07;;;17.00;78.90;;;;;;10848913;32;20040;-73
2022/10/12 23:50:10;;;;;;;8.48;6.20;;;17.10;78.90;;;;;;10862790;32;20387;-73
2022/10/12 23:56:12;;;;;;;13.07;8.40;;;17.00;79.00;;;;;;10862480;32;20035;-73
